Ring-n-wet — WDE9775 — position and weather

sailwx.info

Track history (hours):
 
Tides and Currents Weather Stations Pressure Air Temp Water Temp Dewpoint Dewpoint Depression Visibility Wind Speed Wind Dir Waves Ship Positions

Ring-n-wet

Owner: Ring, Carl D, Memphis, TN. More information available from US FCC via Universal Licensing System and Coast Guard Vessel Documentation Center.

Last reported at 2018-Feb-03 23:57 UTC. Time now 2018-Feb-21 17:29 UTC.
Position N 25°59' W 080°07'.
Warning: this ship's position is 17 days out of date.

Length 17 m.

Type: Pleasure craft. MMSI: 367421150.

Date/timePositionNaut miles runAvg speedWind from/ knotsBaromVisibWave heightAir tempDewpointWater temp
2018-Feb-03 23:57N 25°59' W 080°07'1 1.0
2018-Feb-03 23:26N 25°58' W 080°07'4 7.9
2018-Feb-03 22:56N 25°54' W 080°08'2 5.2
2018-Feb-03 22:30N 25°52' W 080°09'3 5.6
2018-Feb-03 22:00N 25°49' W 080°08'3 5.1
2018-Feb-03 21:30N 25°47' W 080°09'0 0.0
2018-Feb-03 00:27N 25°47' W 080°09'2 3.5
2018-Feb-03 00:00N 25°46' W 080°11'1 2.5
2018-Feb-02 23:30N 25°47' W 080°12'1 2.9
2018-Feb-02 23:00N 25°46' W 080°11'7 9.2
2018-Feb-02 22:15N 25°39' W 080°09'312.3
2018-Feb-02 22:00N 25°42' W 080°07'612.2
2018-Feb-02 21:30N 25°48' W 080°07'610.9
2018-Feb-02 20:55N 25°54' W 080°07'3 7.8
2018-Feb-02 20:30N 25°57' W 080°08'  
Track history (hours):
 
Tides and Currents Weather Stations Pressure Air Temp Water Temp Dewpoint Dewpoint Depression Visibility Wind Speed Wind Dir Waves Ship Positions

Ring-n-wet

Owner: Ring, Carl D, Memphis, TN. More information available from US FCC via Universal Licensing System and Coast Guard Vessel Documentation Center.

Last reported at 2018-Feb-03 23:57 UTC. Time now 2018-Feb-21 17:29 UTC.
Position N 25°59' W 080°07'.
Warning: this ship's position is 17 days out of date.

Length 17 m.

Type: Pleasure craft. MMSI: 367421150.

Date/timePositionNaut miles runAvg speedWind from/ knotsBaromVisibWave heightAir tempDewpointWater temp
2018-Feb-03 23:57N 25°59' W 080°07'1 1.0
2018-Feb-03 23:26N 25°58' W 080°07'4 7.9
2018-Feb-03 22:56N 25°54' W 080°08'2 5.2
2018-Feb-03 22:30N 25°52' W 080°09'3 5.6
2018-Feb-03 22:00N 25°49' W 080°08'3 5.1
2018-Feb-03 21:30N 25°47' W 080°09'0 0.0
2018-Feb-03 00:27N 25°47' W 080°09'2 3.5
2018-Feb-03 00:00N 25°46' W 080°11'1 2.5
2018-Feb-02 23:30N 25°47' W 080°12'1 2.9
2018-Feb-02 23:00N 25°46' W 080°11'7 9.2
2018-Feb-02 22:15N 25°39' W 080°09'312.3
2018-Feb-02 22:00N 25°42' W 080°07'612.2
2018-Feb-02 21:30N 25°48' W 080°07'610.9
2018-Feb-02 20:55N 25°54' W 080°07'3 7.8
2018-Feb-02 20:30N 25°57' W 080°08'  

Dump ship's entire track history